createdAt,value
2017-08-16T00:00:14.618Z,64.88
2017-08-16T00:00:55.418Z,65.47
2017-08-16T00:01:36.218Z,65.27
2017-08-16T00:02:17.020Z,65.17
2017-08-16T00:02:57.820Z,65.17
2017-08-16T00:03:38.620Z,65.27
2017-08-16T00:04:19.420Z,65.17
2017-08-16T00:05:00.221Z,65.17
2017-08-16T00:05:41.020Z,65.08
2017-08-16T00:06:21.820Z,65.08
2017-08-16T00:07:02.623Z,65.17
2017-08-16T00:07:43.426Z,65.17
2017-08-16T00:08:24.224Z,65.47
2017-08-16T00:10:42.582Z,65.66
2017-08-16T00:11:23.381Z,65.37
2017-08-16T00:12:04.183Z,65.85
2017-08-16T00:12:51.730Z,65.95
2017-08-16T00:13:32.624Z,65.95
2017-08-16T00:14:13.426Z,66.05
2017-08-16T00:14:54.226Z,65.85
2017-08-16T00:15:35.023Z,65.95
2017-08-16T00:17:33.022Z,66.14
2017-08-16T00:18:13.906Z,65.95
2017-08-16T00:18:54.706Z,65.66
2017-08-16T00:19:35.507Z,65.75
2017-08-16T00:20:16.306Z,65.95
2017-08-16T00:20:57.107Z,65.85
2017-08-16T00:21:37.906Z,65.75
2017-08-16T00:22:18.707Z,65.95
2017-08-16T00:22:59.507Z,65.95
2017-08-16T00:23:40.308Z,65.95
2017-08-16T00:24:21.109Z,65.95
2017-08-16T00:25:01.909Z,66.14
2017-08-16T00:25:42.710Z,66.14
2017-08-16T00:26:23.509Z,66.72
2017-08-16T00:27:04.310Z,66.34
2017-08-16T00:27:45.110Z,66.53
2017-08-16T00:28:25.910Z,66.44
2017-08-16T00:29:06.709Z,66.34
2017-08-16T00:29:47.511Z,66.53
2017-08-16T00:30:28.310Z,66.53
2017-08-16T00:31:09.111Z,66.44
2017-08-16T00:31:49.913Z,66.44
2017-08-16T00:32:30.712Z,66.44
2017-08-16T00:33:11.513Z,66.53
2017-08-16T00:33:52.313Z,66.72
2017-08-16T00:34:33.114Z,66.63
2017-08-16T00:35:13.913Z,66.82
2017-08-16T00:35:54.714Z,66.92
2017-08-16T00:36:35.515Z,66.72
2017-08-16T00:37:16.315Z,66.72
2017-08-16T00:37:57.114Z,67.21
2017-08-16T00:38:37.915Z,67.02
2017-08-16T00:39:18.716Z,66.92
2017-08-16T00:39:59.515Z,67.02
2017-08-16T00:40:40.316Z,66.82
2017-08-16T00:41:21.117Z,66.92
2017-08-16T00:42:01.916Z,67.02
2017-08-16T00:42:42.717Z,66.92
2017-08-16T00:43:23.517Z,67.02
2017-08-16T00:44:04.317Z,67.21
2017-08-16T00:44:45.119Z,67.11
2017-08-16T00:45:25.919Z,66.72
2017-08-16T00:46:06.718Z,66.63
2017-08-16T00:46:47.519Z,66.53
2017-08-16T00:47:28.323Z,66.72
2017-08-16T00:48:09.119Z,66.44
2017-08-16T00:48:49.920Z,66.82
2017-08-16T00:50:42.721Z,66.63
2017-08-16T00:51:23.520Z,66.44
2017-08-16T00:52:04.321Z,66.44
2017-08-16T00:52:45.121Z,66.63
2017-08-16T00:53:25.921Z,66.72
2017-08-16T00:54:06.725Z,66.72
2017-08-16T00:54:47.523Z,66.44
2017-08-16T00:55:28.323Z,66.63
2017-08-16T00:56:09.123Z,66.44
2017-08-16T00:56:49.924Z,66.53
2017-08-16T00:58:42.723Z,66.92
2017-08-16T00:59:23.524Z,66.92
2017-08-16T01:00:04.326Z,66.82
2017-08-16T01:00:45.124Z,67.02
2017-08-16T01:01:25.928Z,66.72
2017-08-16T01:02:06.724Z,66.72
2017-08-16T01:02:47.528Z,66.82
2017-08-16T01:03:39.273Z,66.63
2017-08-16T01:04:20.168Z,66.72
2017-08-16T01:05:00.968Z,66.72
2017-08-16T01:05:41.767Z,66.44
2017-08-16T01:06:22.570Z,66.44
2017-08-16T01:07:03.367Z,66.44
2017-08-16T01:07:44.168Z,66.24
2017-08-16T01:08:24.968Z,66.82
2017-08-16T01:09:06.419Z,66.14
2017-08-16T01:09:47.290Z,66.72
2017-08-16T01:10:28.088Z,66.24
2017-08-16T01:11:08.890Z,66.63
2017-08-16T01:11:49.690Z,66.82
2017-08-16T01:12:30.490Z,66.14
2017-08-16T01:13:11.291Z,66.05
2017-08-16T01:13:52.091Z,66.05
2017-08-16T01:14:32.892Z,65.95
2017-08-16T01:15:13.692Z,65.95
2017-08-16T01:15:54.492Z,65.75
2017-08-16T01:16:35.293Z,65.66
2017-08-16T01:17:16.094Z,66.14
2017-08-16T01:17:56.893Z,65.95
2017-08-16T01:18:37.693Z,65.85
2017-08-16T01:19:18.494Z,65.75
2017-08-16T01:19:59.294Z,65.66
2017-08-16T01:20:40.094Z,65.85
2017-08-16T01:21:20.895Z,66.05
2017-08-16T01:22:01.695Z,66.14
2017-08-16T01:22:42.495Z,66.14
2017-08-16T01:23:23.295Z,66.14
2017-08-16T01:24:04.096Z,66.14
2017-08-16T01:24:44.897Z,66.14
2017-08-16T01:25:25.697Z,66.14
2017-08-16T01:26:06.496Z,66.05
2017-08-16T01:26:47.297Z,66.24
2017-08-16T01:27:28.098Z,66.24
2017-08-16T01:28:08.899Z,65.85
2017-08-16T01:28:49.698Z,66.14
2017-08-16T01:29:30.497Z,66.05
2017-08-16T01:30:11.298Z,66.05
2017-08-16T01:30:52.099Z,66.05
2017-08-16T01:31:32.899Z,65.95
2017-08-16T01:32:13.699Z,66.05
2017-08-16T01:32:54.500Z,66.05
2017-08-16T01:33:35.301Z,66.14
2017-08-16T01:34:16.102Z,65.85
2017-08-16T01:34:56.901Z,66.14
2017-08-16T01:35:37.708Z,65.95
2017-08-16T01:36:18.502Z,66.24
2017-08-16T01:36:59.304Z,66.24
2017-08-16T01:37:40.105Z,66.24
2017-08-16T01:39:58.344Z,66.05
2017-08-16T01:40:39.143Z,66.24
2017-08-16T01:41:19.944Z,66.05
2017-08-16T01:42:00.744Z,66.24
2017-08-16T01:42:41.547Z,66.24
2017-08-16T01:44:29.185Z,66.24
2017-08-16T01:45:09.985Z,65.95
2017-08-16T01:45:50.786Z,66.05
2017-08-16T01:46:31.586Z,66.05
2017-08-16T01:47:12.386Z,66.05
2017-08-16T01:47:53.186Z,66.05
2017-08-16T01:48:33.987Z,65.95
2017-08-16T01:49:14.788Z,66.24
2017-08-16T01:49:55.588Z,66.05
2017-08-16T01:50:36.411Z,65.95
2017-08-16T01:51:17.189Z,66.05
2017-08-16T01:51:57.988Z,66.05
2017-08-16T01:52:49.590Z,66.05
2017-08-16T01:53:30.389Z,66.05
2017-08-16T01:54:11.188Z,66.24
2017-08-16T01:54:51.990Z,66.05
2017-08-16T01:55:32.790Z,65.85
2017-08-16T01:56:13.590Z,66.24
2017-08-16T01:56:54.390Z,66.14
2017-08-16T01:57:35.191Z,66.05
2017-08-16T01:58:30.632Z,66.14
2017-08-16T01:59:11.431Z,66.05
2017-08-16T01:59:52.232Z,66.05
2017-08-16T02:00:33.031Z,66.14
2017-08-16T02:01:13.832Z,66.05
2017-08-16T02:01:54.633Z,66.24
2017-08-16T02:02:35.434Z,66.05
2017-08-16T02:03:16.233Z,66.24
2017-08-16T02:03:57.035Z,66.05
2017-08-16T02:04:37.834Z,65.95
2017-08-16T02:05:18.634Z,65.85
2017-08-16T02:05:59.435Z,65.95
2017-08-16T02:06:40.237Z,65.75
2017-08-16T02:07:21.036Z,65.85
2017-08-16T02:08:01.836Z,66.14
2017-08-16T02:08:42.635Z,66.24
2017-08-16T02:09:23.436Z,66.24
2017-08-16T02:10:04.236Z,66.14
2017-08-16T02:10:45.037Z,66.14
2017-08-16T02:11:25.837Z,66.24
2017-08-16T02:12:06.637Z,66.24
2017-08-16T02:12:47.438Z,66.05
2017-08-16T02:13:28.240Z,66.05
2017-08-16T02:14:09.038Z,65.85
2017-08-16T02:14:49.842Z,66.14
2017-08-16T02:15:30.647Z,66.14
2017-08-16T02:16:11.439Z,65.85
2017-08-16T02:16:52.240Z,66.14
2017-08-16T02:17:33.038Z,65.66
2017-08-16T02:18:13.842Z,65.95
2017-08-16T02:19:01.360Z,65.95
2017-08-16T02:19:42.162Z,66.05
2017-08-16T02:20:22.961Z,65.75
2017-08-16T02:21:03.761Z,65.95
2017-08-16T02:21:44.562Z,65.95
2017-08-16T02:22:25.364Z,65.95
2017-08-16T02:23:06.161Z,66.14
2017-08-16T02:23:46.962Z,65.85
2017-08-16T02:24:27.764Z,65.95
2017-08-16T02:25:08.565Z,65.85
2017-08-16T02:25:49.363Z,65.95
2017-08-16T02:26:30.164Z,65.95
2017-08-16T02:27:10.964Z,65.85
2017-08-16T02:27:51.764Z,65.85
2017-08-16T02:28:32.565Z,65.95
2017-08-16T02:29:13.366Z,65.85
2017-08-16T02:29:54.165Z,65.75
2017-08-16T02:30:34.966Z,65.56
2017-08-16T02:31:15.765Z,65.95
2017-08-16T02:31:56.567Z,65.95
2017-08-16T02:32:37.367Z,65.56
2017-08-16T02:33:18.169Z,66.05
2017-08-16T02:33:58.989Z,65.95
2017-08-16T02:34:39.768Z,66.14
2017-08-16T02:35:20.569Z,65.66
2017-08-16T02:36:01.367Z,65.66
2017-08-16T02:36:42.170Z,65.85
2017-08-16T02:37:22.969Z,66.05
2017-08-16T02:38:03.769Z,65.95
2017-08-16T02:38:44.569Z,65.75
2017-08-16T02:39:25.370Z,65.95
2017-08-16T02:40:06.170Z,65.75
2017-08-16T02:40:46.971Z,65.85
2017-08-16T02:41:27.771Z,65.95
2017-08-16T02:42:08.572Z,65.95
2017-08-16T02:42:49.372Z,65.95
2017-08-16T02:43:30.171Z,66.14
2017-08-16T02:44:10.972Z,65.95
2017-08-16T02:44:51.773Z,65.95
2017-08-16T02:45:32.574Z,65.95
2017-08-16T02:46:13.375Z,65.95
2017-08-16T02:46:54.177Z,65.95
2017-08-16T02:47:34.974Z,65.85
2017-08-16T02:48:30.419Z,65.75
2017-08-16T02:49:11.214Z,65.95
2017-08-16T02:49:52.014Z,66.02
2017-08-16T02:50:32.815Z,66.05
2017-08-16T02:51:13.615Z,66.05
2017-08-16T02:51:54.416Z,65.85
2017-08-16T02:52:35.216Z,66.05
2017-08-16T02:53:16.017Z,66.05
2017-08-16T02:53:56.815Z,65.56
2017-08-16T02:54:37.615Z,65.75
2017-08-16T02:55:18.417Z,65.85
2017-08-16T02:55:59.218Z,65.95
2017-08-16T02:56:40.018Z,65.95
2017-08-16T02:57:20.818Z,66.14
2017-08-16T02:58:01.620Z,66.05
2017-08-16T02:58:42.424Z,65.95
2017-08-16T02:59:23.220Z,65.95
2017-08-16T03:00:04.019Z,66.02
2017-08-16T03:00:44.821Z,65.95
2017-08-16T03:01:25.620Z,65.75
2017-08-16T03:02:06.420Z,65.85
2017-08-16T03:02:47.221Z,66.14
2017-08-16T03:03:28.020Z,66.05
2017-08-16T03:05:20.822Z,65.82
2017-08-16T03:06:01.622Z,66.14
2017-08-16T03:06:42.422Z,66.05
2017-08-16T03:07:23.222Z,66.44
2017-08-16T03:08:04.023Z,65.75
2017-08-16T03:08:44.823Z,66.14
2017-08-16T03:09:25.683Z,65.95
2017-08-16T03:10:06.424Z,66.05
2017-08-16T03:10:47.225Z,66.11
2017-08-16T03:11:28.024Z,66.14
2017-08-16T03:12:08.825Z,66.24
2017-08-16T03:12:49.625Z,65.85
2017-08-16T03:13:30.459Z,66.05
2017-08-16T03:14:11.225Z,65.95
2017-08-16T03:14:52.026Z,65.14
2017-08-16T03:15:32.833Z,65.24
2017-08-16T03:16:13.635Z,65.08
2017-08-16T03:16:54.427Z,65.05
2017-08-16T03:17:35.231Z,65.05
2017-08-16T03:18:16.079Z,65.05
2017-08-16T03:18:56.948Z,64.85
2017-08-16T03:19:37.747Z,65.14
2017-08-16T03:20:18.669Z,65.08
2017-08-16T03:20:59.469Z,65.05
2017-08-16T03:21:40.269Z,65.08
2017-08-16T03:22:21.310Z,65.14
2017-08-16T03:23:02.109Z,65.34
2017-08-16T03:23:43.035Z,65.37
2017-08-16T03:24:23.853Z,65.27
2017-08-16T03:25:04.750Z,65.08
2017-08-16T03:25:45.671Z,65.27
2017-08-16T03:26:26.470Z,65.17
2017-08-16T03:27:07.271Z,65.17
2017-08-16T03:27:48.071Z,65.17
2017-08-16T03:28:28.871Z,65.17
2017-08-16T03:29:09.674Z,65.17
2017-08-16T03:29:50.472Z,65.08
2017-08-16T03:30:31.274Z,64.88
2017-08-16T03:31:12.074Z,64.88
2017-08-16T03:31:52.876Z,65.08
2017-08-16T03:32:33.673Z,64.95
2017-08-16T03:33:14.474Z,65.08
2017-08-16T03:33:55.275Z,65.34
2017-08-16T03:34:36.076Z,65.37
2017-08-16T03:35:16.876Z,65.17
2017-08-16T03:35:57.702Z,64.88
2017-08-16T03:36:38.596Z,64.88
2017-08-16T03:37:19.397Z,64.98
2017-08-16T03:38:00.197Z,64.98
2017-08-16T03:38:40.997Z,64.59
2017-08-16T03:39:21.797Z,65.27
2017-08-16T03:40:02.599Z,65.17
2017-08-16T03:40:43.398Z,64.88
2017-08-16T03:41:24.197Z,64.88
2017-08-16T03:42:05.018Z,65.27
2017-08-16T03:42:45.798Z,64.69
2017-08-16T03:43:26.602Z,64.78
2017-08-16T03:44:07.400Z,64.78
2017-08-16T03:44:48.199Z,64.78
2017-08-16T03:45:28.999Z,65.17
2017-08-16T03:46:09.800Z,64.5
2017-08-16T03:46:50.600Z,64.59
2017-08-16T03:47:31.402Z,64.78
2017-08-16T03:48:12.201Z,64.88
2017-08-16T03:48:53.002Z,64.2
2017-08-16T03:49:33.801Z,64.11
2017-08-16T03:50:14.602Z,63.53
2017-08-16T03:50:55.402Z,63.53
2017-08-16T03:51:36.203Z,63.78
2017-08-16T03:52:17.004Z,64.11
2017-08-16T03:52:57.803Z,63.78
2017-08-16T03:53:38.602Z,64.17
2017-08-16T03:55:56.845Z,63.98
2017-08-16T03:56:37.644Z,63.69
2017-08-16T03:57:18.444Z,63.88
2017-08-16T03:57:59.246Z,63.69
2017-08-16T03:58:40.045Z,63.49
2017-08-16T03:59:20.846Z,63.78
2017-08-16T04:00:01.647Z,63.78
2017-08-16T04:00:42.445Z,63.59
2017-08-16T04:01:23.247Z,63.88
2017-08-16T04:02:04.047Z,64.37
2017-08-16T04:02:44.849Z,64.27
2017-08-16T04:03:25.648Z,64.07
2017-08-16T04:04:06.447Z,64.37
2017-08-16T04:04:47.248Z,64.17
2017-08-16T04:05:28.047Z,63.98
2017-08-16T04:06:08.848Z,64.27
2017-08-16T04:06:49.649Z,64.04
2017-08-16T04:07:30.449Z,64.14
2017-08-16T04:08:11.248Z,64.43
2017-08-16T04:08:52.050Z,63.95
2017-08-16T04:09:32.850Z,63.95
2017-08-16T04:10:13.650Z,64.14
2017-08-16T04:10:54.451Z,64.34
2017-08-16T04:11:35.252Z,64.62
2017-08-16T04:12:16.051Z,64.72
2017-08-16T04:12:56.852Z,64.14
2017-08-16T04:13:37.652Z,63.95
2017-08-16T04:14:18.452Z,64.04
2017-08-16T04:14:59.252Z,63.95
2017-08-16T04:15:46.892Z,64.14
2017-08-16T04:16:27.693Z,64.43
2017-08-16T04:17:08.493Z,64.53
2017-08-16T04:19:06.454Z,64.72
2017-08-16T04:19:47.254Z,64.53
2017-08-16T04:20:28.054Z,64.24
2017-08-16T04:21:08.855Z,64.82
2017-08-16T04:21:49.656Z,65.2
2017-08-16T04:22:31.540Z,64.53
2017-08-16T04:23:13.296Z,64.5
2017-08-16T04:23:54.873Z,64.62
2017-08-16T04:24:35.257Z,64.72
2017-08-16T04:25:16.055Z,65.27
2017-08-16T04:25:56.857Z,64.98
2017-08-16T04:26:37.785Z,64.72
2017-08-16T04:27:19.914Z,65.27
2017-08-16T04:28:00.222Z,64.69
2017-08-16T04:28:41.138Z,64.5
2017-08-16T04:29:21.971Z,64.98
2017-08-16T04:31:35.140Z,65.27
2017-08-16T04:32:15.941Z,65.01
2017-08-16T04:32:56.741Z,65.08
2017-08-16T04:33:37.541Z,64.69
2017-08-16T04:34:18.342Z,64.89
2017-08-16T04:34:59.147Z,65.17
2017-08-16T04:35:39.942Z,65.17
2017-08-16T04:36:20.742Z,64.79
2017-08-16T04:37:01.543Z,65.27
2017-08-16T04:37:42.342Z,65.27
2017-08-16T04:38:23.143Z,65.08
2017-08-16T04:39:03.943Z,65.08
2017-08-16T04:39:44.744Z,65.17
2017-08-16T04:40:25.543Z,65.17
2017-08-16T04:41:06.345Z,65.08
2017-08-16T04:41:47.144Z,64.98
2017-08-16T04:43:39.946Z,64.98
2017-08-16T04:44:20.746Z,64.98
2017-08-16T04:45:01.545Z,65.17
2017-08-16T04:45:42.346Z,64.98
2017-08-16T04:46:23.146Z,64.98
2017-08-16T04:47:03.946Z,64.89
2017-08-16T04:49:01.911Z,64.89
2017-08-16T04:49:42.707Z,65.17
2017-08-16T04:50:23.508Z,65.08
2017-08-16T04:51:04.309Z,65.37
2017-08-16T04:51:45.109Z,65.75
2017-08-16T04:53:37.911Z,65.27
2017-08-16T04:54:18.711Z,64.89
2017-08-16T04:54:59.511Z,65.08
2017-08-16T04:55:40.310Z,64.79
2017-08-16T04:56:21.112Z,65.08
2017-08-16T04:57:01.912Z,64.98
2017-08-16T04:57:42.712Z,64.89
2017-08-16T04:58:23.512Z,65.14
2017-08-16T04:59:04.313Z,64.85
2017-08-16T04:59:45.113Z,64.95
2017-08-16T05:01:37.915Z,65.05
2017-08-16T05:02:18.714Z,64.95
2017-08-16T05:02:59.514Z,64.95
2017-08-16T05:03:40.313Z,65.43
2017-08-16T05:04:21.114Z,65.53
2017-08-16T05:05:01.916Z,65.34
2017-08-16T05:05:57.525Z,65.43
2017-08-16T05:06:38.276Z,65.34
2017-08-16T05:07:19.076Z,65.43
2017-08-16T05:07:59.876Z,65.53
2017-08-16T05:08:40.678Z,65.72
2017-08-16T05:10:58.917Z,66.02
2017-08-16T05:11:39.718Z,65.92
2017-08-16T05:12:20.518Z,65.72
2017-08-16T05:13:01.320Z,65.82
2017-08-16T05:13:42.119Z,65.53
2017-08-16T05:15:34.920Z,65.92
2017-08-16T05:16:15.721Z,66.02
2017-08-16T05:16:56.520Z,65.92
2017-08-16T05:17:37.321Z,65.92
2017-08-16T05:18:18.121Z,66.02
2017-08-16T05:18:58.921Z,65.92
2017-08-16T05:19:39.721Z,66.11
2017-08-16T05:20:20.522Z,65.92
2017-08-16T05:21:01.324Z,65.72
2017-08-16T05:21:42.121Z,65.72
2017-08-16T05:22:22.923Z,65.92
2017-08-16T05:23:03.722Z,65.92
2017-08-16T05:23:44.523Z,65.53
2017-08-16T05:24:25.323Z,65.24
2017-08-16T05:25:06.129Z,65.92
2017-08-16T05:25:46.924Z,65.72
2017-08-16T05:26:27.724Z,65.82
2017-08-16T05:27:08.525Z,65.82
2017-08-16T05:27:49.326Z,65.63
2017-08-16T05:28:30.125Z,65.82
2017-08-16T05:29:10.926Z,66.02
2017-08-16T05:29:51.725Z,66.27
2017-08-16T05:30:32.526Z,66.37
2017-08-16T05:31:13.326Z,66.66
2017-08-16T05:31:54.131Z,66.85
2017-08-16T05:32:34.929Z,67.14
2017-08-16T05:33:15.727Z,67.14
2017-08-16T05:33:56.527Z,67.05
2017-08-16T05:34:37.329Z,67.53
2017-08-16T05:35:18.129Z,67.69
2017-08-16T05:35:58.930Z,67.91
2017-08-16T05:36:39.729Z,67.79
2017-08-16T05:37:20.529Z,68.17
2017-08-16T05:38:01.330Z,68.17
2017-08-16T05:38:42.130Z,68.27
2017-08-16T05:39:22.930Z,68.17
2017-08-16T05:40:03.732Z,68.27
2017-08-16T05:40:44.530Z,68.27
2017-08-16T05:41:25.331Z,68.17
2017-08-16T05:42:06.132Z,68.08
2017-08-16T05:42:46.932Z,67.98
2017-08-16T05:43:27.732Z,67.88
2017-08-16T05:44:08.532Z,67.82
2017-08-16T05:44:49.332Z,67.72
2017-08-16T05:45:30.133Z,67.53
2017-08-16T05:46:10.933Z,67.72
2017-08-16T05:46:51.734Z,67.82
2017-08-16T05:47:32.532Z,67.53
2017-08-16T05:48:13.334Z,67.14
2017-08-16T05:48:54.133Z,67.14
2017-08-16T05:49:34.935Z,66.66
2017-08-16T05:51:53.177Z,65.72
2017-08-16T05:52:33.975Z,65.82
2017-08-16T05:53:14.778Z,65.92
2017-08-16T05:53:55.576Z,65.85
2017-08-16T05:54:36.377Z,65.27
2017-08-16T05:55:17.176Z,65.27
2017-08-16T05:57:09.978Z,64.72
2017-08-16T05:57:50.778Z,64.14
2017-08-16T05:58:31.580Z,66.95
2017-08-16T05:59:12.378Z,66.6
2017-08-16T05:59:53.179Z,65.24
2017-08-16T06:00:33.979Z,65.34
2017-08-16T06:01:14.779Z,64.75
2017-08-16T06:01:55.579Z,64.75
2017-08-16T06:02:36.384Z,64.56
2017-08-16T06:03:17.193Z,64.17
2017-08-16T06:03:57.981Z,64.37
2017-08-16T06:04:38.780Z,63.49
2017-08-16T06:05:21.168Z,63.72
2017-08-16T06:06:02.062Z,62.85
2017-08-16T06:06:42.861Z,63.43
2017-08-16T06:07:23.662Z,62.95
2017-08-16T06:08:04.462Z,63.33
2017-08-16T06:08:45.262Z,63.23
2017-08-16T06:09:26.062Z,63.04
2017-08-16T06:10:06.863Z,62.95
2017-08-16T06:10:47.664Z,63.04
2017-08-16T06:11:28.463Z,62.55
2017-08-16T06:12:09.264Z,62.36
2017-08-16T06:12:50.064Z,62.46
2017-08-16T06:13:30.865Z,62.65
2017-08-16T06:14:11.664Z,62.36
2017-08-16T06:14:52.465Z,62.26
2017-08-16T06:15:33.266Z,62.36
2017-08-16T06:16:14.068Z,62.07
2017-08-16T06:16:54.866Z,61.68
2017-08-16T06:17:35.666Z,61.98
2017-08-16T06:18:16.467Z,62.07
2017-08-16T06:18:57.267Z,62.16
2017-08-16T06:19:38.067Z,62.07
2017-08-16T06:20:18.868Z,62.16
2017-08-16T06:20:59.667Z,62.16
2017-08-16T06:21:40.468Z,62.16
2017-08-16T06:22:21.268Z,62.26
2017-08-16T06:23:02.069Z,61.98
2017-08-16T06:23:42.870Z,61.98
2017-08-16T06:24:23.669Z,62.26
2017-08-16T06:25:04.491Z,62.07
2017-08-16T06:25:45.271Z,62.07
2017-08-16T06:26:26.071Z,61.88
2017-08-16T06:27:06.871Z,62.07
2017-08-16T06:27:47.671Z,62.07
2017-08-16T06:28:28.472Z,62.16
2017-08-16T06:29:09.271Z,61.98
2017-08-16T06:29:50.071Z,61.98
2017-08-16T06:30:30.871Z,61.78
2017-08-16T06:31:11.673Z,61.88
2017-08-16T06:31:52.473Z,61.85
2017-08-16T06:32:33.273Z,62.07
2017-08-16T06:33:14.073Z,62.07
2017-08-16T06:33:54.874Z,62.07
2017-08-16T06:34:35.674Z,62.07
2017-08-16T06:35:16.475Z,62.16
2017-08-16T06:35:57.274Z,62.26
2017-08-16T06:37:50.076Z,62.07
2017-08-16T06:38:30.875Z,62.07
2017-08-16T06:39:11.674Z,62.16
2017-08-16T06:39:52.476Z,61.39
2017-08-16T06:40:33.276Z,61.78
2017-08-16T06:41:14.076Z,61.78
2017-08-16T06:41:54.877Z,61.98
2017-08-16T06:42:35.678Z,61.68
2017-08-16T06:43:16.477Z,61.68
2017-08-16T06:43:57.294Z,61.39
2017-08-16T06:44:38.079Z,61.39
2017-08-16T06:45:18.879Z,61.22
2017-08-16T06:45:59.680Z,61.1
2017-08-16T06:46:40.479Z,61
2017-08-16T06:47:21.279Z,60.64
2017-08-16T06:48:16.960Z,61.13
2017-08-16T06:48:57.760Z,60.84
2017-08-16T06:49:38.560Z,60.45
2017-08-16T06:50:19.360Z,60.55
2017-08-16T06:51:00.160Z,60.35
2017-08-16T06:51:40.990Z,60.38
2017-08-16T06:52:21.881Z,59.8
2017-08-16T06:53:02.681Z,60
2017-08-16T06:53:43.480Z,59.12
2017-08-16T06:54:24.282Z,58.95
2017-08-16T06:55:05.085Z,58.69
2017-08-16T06:55:45.883Z,58.57
2017-08-16T06:56:26.683Z,58.18
2017-08-16T06:57:07.483Z,58.67
2017-08-16T06:57:48.284Z,58.08
2017-08-16T06:58:29.085Z,58.47
2017-08-16T06:59:09.886Z,58.28
2017-08-16T06:59:50.684Z,58.79
2017-08-16T07:00:31.485Z,58.59
2017-08-16T07:01:12.285Z,58.31
2017-08-16T07:01:53.085Z,58.21
2017-08-16T07:02:33.886Z,57.82
2017-08-16T07:03:14.686Z,57.92
2017-08-16T07:03:55.487Z,57.72
2017-08-16T07:04:36.286Z,57.92
2017-08-16T07:05:17.087Z,57.43
2017-08-16T07:06:12.703Z,57.82
2017-08-16T07:06:53.567Z,57.62
2017-08-16T07:07:34.367Z,57.46
2017-08-16T07:08:15.168Z,57.17
2017-08-16T07:08:55.969Z,57.2
2017-08-16T07:09:36.770Z,56.22
2017-08-16T07:10:17.571Z,55.66
2017-08-16T07:10:58.369Z,53.58
2017-08-16T07:11:39.171Z,52.89
2017-08-16T07:12:19.970Z,52.6
2017-08-16T07:13:00.769Z,52.8
2017-08-16T07:15:19.016Z,51.39
2017-08-16T07:15:59.812Z,50.9
2017-08-16T07:16:55.612Z,50.53
2017-08-16T07:17:36.412Z,49.66
2017-08-16T07:18:17.213Z,49.85
2017-08-16T07:20:10.014Z,49.22
2017-08-16T07:20:50.813Z,48.73
2017-08-16T07:21:31.614Z,47.87
2017-08-16T07:22:12.414Z,47.77
2017-08-16T07:22:53.215Z,47.38
2017-08-16T07:23:34.014Z,47.28
2017-08-16T07:24:14.816Z,47.58
2017-08-16T07:26:12.776Z,47.85
2017-08-16T07:26:53.575Z,47.95
2017-08-16T07:27:34.377Z,47.85
2017-08-16T07:28:15.177Z,47.85
2017-08-16T07:28:55.977Z,48.14
2017-08-16T07:29:36.778Z,47.66
2017-08-16T07:30:17.577Z,48.14
2017-08-16T07:30:58.377Z,48.05
2017-08-16T07:31:39.179Z,48.05
2017-08-16T07:32:19.979Z,48.24
2017-08-16T07:33:00.780Z,48.05
2017-08-16T07:33:41.579Z,48.05
2017-08-16T07:34:22.379Z,47.85
2017-08-16T07:35:03.180Z,47.46
2017-08-16T07:35:43.980Z,47.58
2017-08-16T07:36:24.781Z,47.09
2017-08-16T07:37:05.586Z,47.19
2017-08-16T07:37:46.381Z,47.46
2017-08-16T07:38:27.180Z,47.75
2017-08-16T07:39:07.981Z,47.56
2017-08-16T07:39:48.784Z,47.46
2017-08-16T07:40:29.582Z,47.19
2017-08-16T07:41:10.383Z,47.19
2017-08-16T07:41:51.182Z,45.75
2017-08-16T07:42:46.863Z,45.2
2017-08-16T07:43:27.663Z,43.12
2017-08-16T07:44:08.463Z,40.92
2017-08-16T07:45:56.106Z,39.29
2017-08-16T07:46:36.906Z,39.47
2017-08-16T07:47:17.708Z,39.54
2017-08-16T07:47:58.509Z,40.11
2017-08-16T07:48:54.066Z,40.21
2017-08-16T07:49:34.867Z,40.33
2017-08-16T07:50:15.666Z,40.21
2017-08-16T07:50:56.467Z,40.41
2017-08-16T07:51:37.267Z,40.61
2017-08-16T07:52:18.066Z,41.27
2017-08-16T07:52:58.867Z,41.47
2017-08-16T07:53:39.667Z,41.27
2017-08-16T07:54:20.468Z,41.64
2017-08-16T07:55:01.269Z,41.47
2017-08-16T07:56:54.073Z,42.29
2017-08-16T07:57:51.429Z,42.97
2017-08-16T07:58:32.228Z,43.73
2017-08-16T07:59:13.029Z,43.44
2017-08-16T07:59:53.830Z,44.1
2017-08-16T08:00:34.632Z,44.59
2017-08-16T08:01:15.430Z,44.48
2017-08-16T08:01:56.233Z,45.06
2017-08-16T08:02:37.030Z,45.45
2017-08-16T08:03:17.832Z,45.92
2017-08-16T08:03:58.632Z,46.19
2017-08-16T08:04:39.432Z,46
2017-08-16T08:05:20.235Z,46.88
2017-08-16T08:06:01.033Z,47.17
2017-08-16T08:06:41.833Z,47.44
2017-08-16T08:07:22.634Z,47.92
2017-08-16T08:08:03.434Z,48
2017-08-16T08:08:44.236Z,48.1
2017-08-16T08:10:37.035Z,47.83
2017-08-16T08:11:17.835Z,47.66
2017-08-16T08:11:58.635Z,46.8
2017-08-16T08:12:39.436Z,45.75
2017-08-16T08:13:20.237Z,45.65
2017-08-16T08:14:01.036Z,45.84
2017-08-16T08:14:41.836Z,45.84
2017-08-16T08:17:00.109Z,46.5
2017-08-16T08:17:40.998Z,46.58
2017-08-16T08:18:21.825Z,46.88
2017-08-16T08:19:02.718Z,47.17
2017-08-16T08:19:43.519Z,47.53
2017-08-16T08:20:24.319Z,47.73
2017-08-16T08:21:05.119Z,47.92
2017-08-16T08:21:45.920Z,47.83
2017-08-16T08:22:26.720Z,48.12
2017-08-16T08:23:07.521Z,48.02
2017-08-16T08:23:48.321Z,47.63
2017-08-16T08:24:44.002Z,46.43
2017-08-16T08:25:24.800Z,43.98
2017-08-16T08:26:05.602Z,41.71
2017-08-16T08:26:46.401Z,39.31
2017-08-16T08:27:27.202Z,39.07
2017-08-16T08:28:08.002Z,38.32
2017-08-16T08:28:48.802Z,36.43
2017-08-16T08:29:44.363Z,36.41
2017-08-16T08:30:25.164Z,36.51
2017-08-16T08:31:05.964Z,34.97
2017-08-16T08:31:46.764Z,33.84
2017-08-16T08:32:27.568Z,32.98
2017-08-16T08:33:08.364Z,32.4
2017-08-16T08:33:49.164Z,31.91
2017-08-16T08:34:29.967Z,30.76
2017-08-16T08:35:10.765Z,30.55
2017-08-16T08:35:51.593Z,30.18
2017-08-16T08:36:32.366Z,29.11
2017-08-16T08:37:13.166Z,29.13
2017-08-16T08:37:53.967Z,28.05
2017-08-16T08:38:34.767Z,27.95
2017-08-16T08:39:15.566Z,27.86
2017-08-16T08:39:56.371Z,27.57
2017-08-16T08:40:37.169Z,27.47
2017-08-16T08:41:17.979Z,26.89
2017-08-16T08:41:58.768Z,26.99
2017-08-16T08:42:39.568Z,26.9
2017-08-16T08:43:20.368Z,25.92
2017-08-16T08:44:01.169Z,26.86
2017-08-16T08:44:41.967Z,27.94
2017-08-16T08:45:22.769Z,27.74
2017-08-16T08:46:03.570Z,27.17
2017-08-16T08:46:44.369Z,26.79
2017-08-16T08:47:25.172Z,26.79
2017-08-16T08:48:05.971Z,26.59
2017-08-16T08:48:46.771Z,28.32
2017-08-16T08:49:27.571Z,28.51
2017-08-16T08:50:23.253Z,27.46
2017-08-16T08:51:04.052Z,27.27
2017-08-16T08:51:44.852Z,26.87
2017-08-16T08:52:25.653Z,26.79
2017-08-16T08:53:06.453Z,26.39
2017-08-16T08:53:47.255Z,25.91
2017-08-16T08:54:28.055Z,25.81
2017-08-16T08:55:08.854Z,25.72
2017-08-16T08:55:49.654Z,25.32
2017-08-16T08:59:36.216Z,25.61
2017-08-16T09:00:17.016Z,25.32
2017-08-16T09:00:57.817Z,25.13
2017-08-16T09:03:16.058Z,24.65
2017-08-16T09:03:56.993Z,25.23
2017-08-16T09:06:15.339Z,27.03
2017-08-16T09:06:56.139Z,27.25
2017-08-16T09:07:36.940Z,28.78
2017-08-16T09:08:17.740Z,29.92
2017-08-16T09:08:58.539Z,31.07
2017-08-16T09:09:39.341Z,32.03
2017-08-16T09:10:20.143Z,33.18
2017-08-16T09:11:00.939Z,34.03
2017-08-16T09:11:41.742Z,35.39
2017-08-16T09:12:37.181Z,36.05
2017-08-16T09:13:17.981Z,37.01
2017-08-16T09:13:58.783Z,37.58
2017-08-16T09:14:39.583Z,38.27
2017-08-16T09:15:20.383Z,38.25
2017-08-16T09:16:01.186Z,38.92
2017-08-16T09:16:41.983Z,40.17
2017-08-16T09:17:22.784Z,40.45
2017-08-16T09:18:03.583Z,40.84
2017-08-16T09:18:44.384Z,41.5
2017-08-16T09:19:25.184Z,41.78
2017-08-16T09:20:05.984Z,40.29
2017-08-16T09:20:46.785Z,39.8
2017-08-16T09:21:27.585Z,39.53
2017-08-16T09:22:08.386Z,38.39
2017-08-16T09:22:49.186Z,37.72
2017-08-16T09:23:29.989Z,38.37
2017-08-16T09:24:10.786Z,39.14
2017-08-16T09:24:51.586Z,39.51
2017-08-16T09:25:32.387Z,39.14
2017-08-16T09:26:13.188Z,39.14
2017-08-16T09:26:53.988Z,39.03
2017-08-16T09:27:34.788Z,39.9
2017-08-16T09:28:15.591Z,40.08
2017-08-16T09:28:56.389Z,40.66
2017-08-16T09:29:37.189Z,40.94
2017-08-16T09:30:17.989Z,40.94
2017-08-16T09:30:58.789Z,41.42